sensor_id;sensor_type;location;lat;lon;timestamp;pressure;altitude;pressure_sealevel;temperature;humidity
72038;BME280;59900;50.788;12.904;2022-11-04T00:01:32;96345.88;;;10.98;77.48
72038;BME280;59900;50.788;12.904;2022-11-04T00:03:57;96338.00;;;10.98;77.76
72038;BME280;59900;50.788;12.904;2022-11-04T00:06:23;96345.88;;;10.98;77.94
72038;BME280;59900;50.788;12.904;2022-11-04T00:08:49;96345.88;;;10.98;77.39
72038;BME280;59900;50.788;12.904;2022-11-04T00:11:15;96352.50;;;11.00;77.88
72038;BME280;59900;50.788;12.904;2022-11-04T00:13:59;96343.81;;;11.00;77.73
72038;BME280;59900;50.788;12.904;2022-11-04T00:16:24;96344.63;;;11.00;78.30
72038;BME280;59900;50.788;12.904;2022-11-04T00:19:09;96341.53;;;11.03;77.86
72038;BME280;59900;50.788;12.904;2022-11-04T00:21:34;96346.44;;;11.00;78.27
72038;BME280;59900;50.788;12.904;2022-11-04T00:24:28;96352.16;;;10.97;78.30
72038;BME280;59900;50.788;12.904;2022-11-04T00:27:17;96347.34;;;10.94;78.54
72038;BME280;59900;50.788;12.904;2022-11-04T00:30:03;96333.66;;;10.92;78.74
72038;BME280;59900;50.788;12.904;2022-11-04T00:32:31;96325.06;;;10.96;78.50
72038;BME280;59900;50.788;12.904;2022-11-04T00:35:15;96336.94;;;10.99;78.85
72038;BME280;59900;50.788;12.904;2022-11-04T00:37:42;96331.47;;;11.00;79.02
72038;BME280;59900;50.788;12.904;2022-11-04T00:40:10;96327.00;;;11.01;79.15
72038;BME280;59900;50.788;12.904;2022-11-04T00:42:36;96317.88;;;11.03;78.97
72038;BME280;59900;50.788;12.904;2022-11-04T00:45:02;96324.72;;;11.04;79.43
72038;BME280;59900;50.788;12.904;2022-11-04T00:47:27;96328.41;;;11.03;79.17
72038;BME280;59900;50.788;12.904;2022-11-04T00:49:53;96329.88;;;10.99;79.82
72038;BME280;59900;50.788;12.904;2022-11-04T00:52:18;96339.03;;;10.97;79.86
72038;BME280;59900;50.788;12.904;2022-11-04T00:54:44;96338.56;;;11.00;79.99
72038;BME280;59900;50.788;12.904;2022-11-04T00:57:10;96331.03;;;11.03;79.71
72038;BME280;59900;50.788;12.904;2022-11-04T00:59:36;96332.41;;;11.06;79.76
72038;BME280;59900;50.788;12.904;2022-11-04T01:02:01;96340.63;;;11.09;79.76
72038;BME280;59900;50.788;12.904;2022-11-04T01:04:27;96335.69;;;11.13;79.81
72038;BME280;59900;50.788;12.904;2022-11-04T01:06:52;96333.66;;;11.15;79.59
72038;BME280;59900;50.788;12.904;2022-11-04T01:09:18;96329.53;;;11.19;79.51
72038;BME280;59900;50.788;12.904;2022-11-04T01:11:43;96336.97;;;11.22;79.16
72038;BME280;59900;50.788;12.904;2022-11-04T01:14:09;96344.63;;;11.23;79.38
72038;BME280;59900;50.788;12.904;2022-11-04T01:16:36;96353.66;;;11.27;79.17
72038;BME280;59900;50.788;12.904;2022-11-04T01:19:02;96368.97;;;11.31;78.66
72038;BME280;59900;50.788;12.904;2022-11-04T01:21:27;96345.44;;;11.36;77.63
72038;BME280;59900;50.788;12.904;2022-11-04T01:23:52;96340.38;;;11.46;77.51
72038;BME280;59900;50.788;12.904;2022-11-04T01:26:20;96316.59;;;11.52;77.24
72038;BME280;59900;50.788;12.904;2022-11-04T01:28:46;96312.94;;;11.53;77.33
72038;BME280;59900;50.788;12.904;2022-11-04T01:31:17;96356.41;;;11.56;77.02
72038;BME280;59900;50.788;12.904;2022-11-04T01:33:42;96350.09;;;11.57;77.78
72038;BME280;59900;50.788;12.904;2022-11-04T01:36:09;96340.63;;;11.56;77.57
72038;BME280;59900;50.788;12.904;2022-11-04T01:38:35;96349.06;;;11.58;77.56
72038;BME280;59900;50.788;12.904;2022-11-04T01:41:00;96379.63;;;11.47;78.54
72038;BME280;59900;50.788;12.904;2022-11-04T01:46:48;96382.59;;;11.39;78.36
72038;BME280;59900;50.788;12.904;2022-11-04T01:49:28;96394.25;;;11.32;78.67
72038;BME280;59900;50.788;12.904;2022-11-04T01:52:02;96389.91;;;11.25;78.26
72038;BME280;59900;50.788;12.904;2022-11-04T01:54:29;96401.91;;;11.21;78.90
72038;BME280;59900;50.788;12.904;2022-11-04T01:56:55;96415.16;;;11.15;78.79
72038;BME280;59900;50.788;12.904;2022-11-04T01:59:29;96420.53;;;11.08;79.03
72038;BME280;59900;50.788;12.904;2022-11-04T02:01:56;96436.19;;;11.03;78.90
72038;BME280;59900;50.788;12.904;2022-11-04T02:04:21;96421.31;;;10.97;78.95
72038;BME280;59900;50.788;12.904;2022-11-04T02:06:52;96428.84;;;10.94;79.62
72038;BME280;59900;50.788;12.904;2022-11-04T02:09:18;96424.59;;;10.93;79.76
72038;BME280;59900;50.788;12.904;2022-11-04T02:11:44;96417.41;;;10.88;79.50
72038;BME280;59900;50.788;12.904;2022-11-04T02:14:29;96423.66;;;10.87;79.67
72038;BME280;59900;50.788;12.904;2022-11-04T02:17:03;96418.66;;;10.86;79.56
72038;BME280;59900;50.788;12.904;2022-11-04T02:28:04;96403.81;;;10.91;80.09
72038;BME280;59900;50.788;12.904;2022-11-04T02:30:47;96416.22;;;10.84;79.91
72038;BME280;59900;50.788;12.904;2022-11-04T02:33:39;96417.13;;;10.78;80.30
72038;BME280;59900;50.788;12.904;2022-11-04T02:36:15;96429.69;;;10.76;80.52
72038;BME280;59900;50.788;12.904;2022-11-04T02:38:56;96424.31;;;10.71;80.94
72038;BME280;59900;50.788;12.904;2022-11-04T02:41:38;96423.97;;;10.67;80.98
72038;BME280;59900;50.788;12.904;2022-11-04T02:44:18;96422.25;;;10.73;81.05
72038;BME280;59900;50.788;12.904;2022-11-04T02:46:51;96431.75;;;10.74;81.26
72038;BME280;59900;50.788;12.904;2022-11-04T02:49:23;96419.75;;;10.78;81.54
72038;BME280;59900;50.788;12.904;2022-11-04T02:51:55;96409.47;;;10.77;81.94
72038;BME280;59900;50.788;12.904;2022-11-04T02:54:35;96416.31;;;10.78;82.22
72038;BME280;59900;50.788;12.904;2022-11-04T02:57:06;96422.03;;;10.75;82.49
72038;BME280;59900;50.788;12.904;2022-11-04T02:59:46;96421.47;;;10.73;82.50
72038;BME280;59900;50.788;12.904;2022-11-04T03:02:17;96417.38;;;10.77;82.25
72038;BME280;59900;50.788;12.904;2022-11-04T03:04:48;96424.56;;;10.81;82.11
72038;BME280;59900;50.788;12.904;2022-11-04T03:07:18;96431.00;;;10.85;82.08
72038;BME280;59900;50.788;12.904;2022-11-04T03:09:50;96428.13;;;10.87;82.11
72038;BME280;59900;50.788;12.904;2022-11-04T03:12:20;96427.91;;;10.88;82.22
72038;BME280;59900;50.788;12.904;2022-11-04T03:14:54;96411.69;;;10.91;82.44
72038;BME280;59900;50.788;12.904;2022-11-04T03:17:46;96414.88;;;10.93;83.07
72038;BME280;59900;50.788;12.904;2022-11-04T03:20:21;96414.88;;;10.93;82.81
72038;BME280;59900;50.788;12.904;2022-11-04T03:22:48;96409.41;;;10.95;82.95
72038;BME280;59900;50.788;12.904;2022-11-04T03:25:14;96414.44;;;10.96;82.63
72038;BME280;59900;50.788;12.904;2022-11-04T03:27:51;96412.38;;;10.98;82.57
72038;BME280;59900;50.788;12.904;2022-11-04T03:30:19;96417.63;;;10.98;82.25
72038;BME280;59900;50.788;12.904;2022-11-04T03:35:36;96418.09;;;10.95;82.32
72038;BME280;59900;50.788;12.904;2022-11-04T03:38:01;96413.63;;;10.96;82.39
72038;BME280;59900;50.788;12.904;2022-11-04T03:40:27;96413.63;;;10.96;82.13
72038;BME280;59900;50.788;12.904;2022-11-04T03:42:55;96417.63;;;10.98;81.84
72038;BME280;59900;50.788;12.904;2022-11-04T03:45:23;96419.25;;;10.99;81.94
72038;BME280;59900;50.788;12.904;2022-11-04T03:47:48;96425.88;;;11.02;82.00
72038;BME280;59900;50.788;12.904;2022-11-04T03:50:31;96416.63;;;10.99;81.80
72038;BME280;59900;50.788;12.904;2022-11-04T03:52:57;96432.50;;;11.04;81.82
72038;BME280;59900;50.788;12.904;2022-11-04T03:55:59;96433.66;;;11.08;81.99
72038;BME280;59900;50.788;12.904;2022-11-04T04:01:23;96442.47;;;11.02;81.86
72038;BME280;59900;50.788;12.904;2022-11-04T04:04:00;96445.53;;;10.99;82.17
72038;BME280;59900;50.788;12.904;2022-11-04T04:06:33;96451.47;;;10.95;82.98
72038;BME280;59900;50.788;12.904;2022-11-04T04:09:21;96461.63;;;10.91;83.28
72038;BME280;59900;50.788;12.904;2022-11-04T04:12:52;96466.28;;;10.89;83.13
72038;BME280;59900;50.788;12.904;2022-11-04T04:14:50;96473.72;;;10.92;83.38
72038;BME280;59900;50.788;12.904;2022-11-04T04:17:35;96474.31;;;10.94;83.55
72038;BME280;59900;50.788;12.904;2022-11-04T04:20:14;96478.66;;;10.89;83.94
72038;BME280;59900;50.788;12.904;2022-11-04T04:22:44;96484.00;;;10.82;84.90
72038;BME280;59900;50.788;12.904;2022-11-04T04:25:12;96485.09;;;10.75;85.30
72038;BME280;59900;50.788;12.904;2022-11-04T04:27:57;96490.00;;;10.71;85.79
72038;BME280;59900;50.788;12.904;2022-11-04T04:30:24;96489.84;;;10.66;86.87
72038;BME280;59900;50.788;12.904;2022-11-04T04:32:57;96492.91;;;10.63;86.91
72038;BME280;59900;50.788;12.904;2022-11-04T04:35:28;96498.41;;;10.61;88.13
72038;BME280;59900;50.788;12.904;2022-11-04T04:38:14;96497.03;;;10.59;88.27
72038;BME280;59900;50.788;12.904;2022-11-04T04:41:09;96496.44;;;10.57;88.67
72038;BME280;59900;50.788;12.904;2022-11-04T04:43:56;96502.94;;;10.54;89.32
72038;BME280;59900;50.788;12.904;2022-11-04T04:46:41;96494.47;;;10.52;89.68
72038;BME280;59900;50.788;12.904;2022-11-04T04:49:08;96500.41;;;10.48;90.20
72038;BME280;59900;50.788;12.904;2022-11-04T04:51:37;96503.22;;;10.46;90.49
72038;BME280;59900;50.788;12.904;2022-11-04T04:54:03;96503.47;;;10.45;90.63
72038;BME280;59900;50.788;12.904;2022-11-04T04:56:28;96497.41;;;10.44;90.93
72038;BME280;59900;50.788;12.904;2022-11-04T04:58:53;96495.34;;;10.46;90.81
72038;BME280;59900;50.788;12.904;2022-11-04T05:01:19;96501.19;;;10.48;91.04
72038;BME280;59900;50.788;12.904;2022-11-04T05:03:44;96505.66;;;10.48;91.47
72038;BME280;59900;50.788;12.904;2022-11-04T05:06:09;96495.59;;;10.45;91.41
72038;BME280;59900;50.788;12.904;2022-11-04T05:08:35;96493.97;;;10.44;91.48
72038;BME280;59900;50.788;12.904;2022-11-04T05:11:00;96498.41;;;10.43;91.90
72038;BME280;59900;50.788;12.904;2022-11-04T05:13:25;96498.88;;;10.40;91.83
72038;BME280;59900;50.788;12.904;2022-11-04T05:15:51;96496.22;;;10.40;91.58
72038;BME280;59900;50.788;12.904;2022-11-04T05:18:18;96500.09;;;10.38;91.87
72038;BME280;59900;50.788;12.904;2022-11-04T05:20:44;96503.53;;;10.38;91.76
72038;BME280;59900;50.788;12.904;2022-11-04T05:23:09;96494.84;;;10.38;91.82
72038;BME280;59900;50.788;12.904;2022-11-04T05:25:37;96492.00;;;10.39;92.01
72038;BME280;59900;50.788;12.904;2022-11-04T05:28:04;96489.38;;;10.39;91.96
72038;BME280;59900;50.788;12.904;2022-11-04T05:30:30;96489.97;;;10.41;91.81
72038;BME280;59900;50.788;12.904;2022-11-04T05:32:55;96493.84;;;10.39;91.90
72038;BME280;59900;50.788;12.904;2022-11-04T05:35:21;96492.22;;;10.38;92.09
72038;BME280;59900;50.788;12.904;2022-11-04T05:37:46;96497.13;;;10.34;92.37
72038;BME280;59900;50.788;12.904;2022-11-04T05:40:11;96497.34;;;10.33;92.20
72038;BME280;59900;50.788;12.904;2022-11-04T05:42:36;96491.06;;;10.34;92.86
72038;BME280;59900;50.788;12.904;2022-11-04T05:45:03;96498.72;;;10.35;92.38
72038;BME280;59900;50.788;12.904;2022-11-04T05:47:28;96494.28;;;10.36;92.29
72038;BME280;59900;50.788;12.904;2022-11-04T05:49:54;96493.25;;;10.37;92.39
72038;BME280;59900;50.788;12.904;2022-11-04T05:52:19;96486.41;;;10.36;92.39
72038;BME280;59900;50.788;12.904;2022-11-04T05:54:44;96493.25;;;10.37;92.34
72038;BME280;59900;50.788;12.904;2022-11-04T05:57:09;96498.16;;;10.33;92.30
72038;BME280;59900;50.788;12.904;2022-11-04T05:59:35;96490.47;;;10.32;92.52
72038;BME280;59900;50.788;12.904;2022-11-04T06:02:01;96492.72;;;10.28;92.64
72038;BME280;59900;50.788;12.904;2022-11-04T06:04:27;96489.28;;;10.28;92.40
72038;BME280;59900;50.788;12.904;2022-11-04T06:06:52;96499.03;;;10.27;92.61
72038;BME280;59900;50.788;12.904;2022-11-04T06:09:17;96494.78;;;10.26;92.49
72038;BME280;59900;50.788;12.904;2022-11-04T06:11:43;96487.47;;;10.28;92.44
72038;BME280;59900;50.788;12.904;2022-11-04T06:14:09;96502.81;;;10.31;92.60
72038;BME280;59900;50.788;12.904;2022-11-04T06:16:34;96494.47;;;10.34;92.39
72038;BME280;59900;50.788;12.904;2022-11-04T06:18:59;96489.22;;;10.34;92.56
72038;BME280;59900;50.788;12.904;2022-11-04T06:21:30;96485.59;;;10.35;92.48
72038;BME280;59900;50.788;12.904;2022-11-04T06:23:57;96484.78;;;10.35;92.35
72038;BME280;59900;50.788;12.904;2022-11-04T06:26:26;96486.84;;;10.33;92.23
72038;BME280;59900;50.788;12.904;2022-11-04T06:28:52;96480.78;;;10.32;92.23
72038;BME280;59900;50.788;12.904;2022-11-04T06:31:18;96487.03;;;10.31;92.42
72038;BME280;59900;50.788;12.904;2022-11-04T06:33:44;96486.84;;;10.33;92.05
72038;BME280;59900;50.788;12.904;2022-11-04T06:36:12;96478.97;;;10.33;92.17
72038;BME280;59900;50.788;12.904;2022-11-04T06:38:38;96476.91;;;10.35;91.51
72038;BME280;59900;50.788;12.904;2022-11-04T06:41:06;96487.41;;;10.35;92.17
72038;BME280;59900;50.788;12.904;2022-11-04T06:43:31;96496.75;;;10.31;91.99
72038;BME280;59900;50.788;12.904;2022-11-04T06:45:59;96501.22;;;10.30;91.80
72038;BME280;59900;50.788;12.904;2022-11-04T06:48:25;96498.78;;;10.29;91.62
72038;BME280;59900;50.788;12.904;2022-11-04T06:50:51;96503.22;;;10.28;91.71
72038;BME280;59900;50.788;12.904;2022-11-04T06:53:17;96502.00;;;10.31;91.42
72038;BME280;59900;50.788;12.904;2022-11-04T06:55:42;96497.91;;;10.35;91.84
72038;BME280;59900;50.788;12.904;2022-11-04T06:58:08;96502.50;;;10.39;91.83
72038;BME280;59900;50.788;12.904;2022-11-04T07:00:33;96506.16;;;10.38;91.65
72038;BME280;59900;50.788;12.904;2022-11-04T07:02:58;96504.78;;;10.36;91.54
72038;BME280;59900;50.788;12.904;2022-11-04T07:05:24;96503.75;;;10.37;91.53
72038;BME280;59900;50.788;12.904;2022-11-04T07:07:49;96522.34;;;10.35;91.31
72038;BME280;59900;50.788;12.904;2022-11-04T07:10:14;96523.38;;;10.34;91.32
72038;BME280;59900;50.788;12.904;2022-11-04T07:12:41;96526.22;;;10.33;91.43
72038;BME280;59900;50.788;12.904;2022-11-04T07:15:07;96517.75;;;10.31;91.67
72038;BME280;59900;50.788;12.904;2022-11-04T07:17:32;96506.47;;;10.30;91.56
72038;BME280;59900;50.788;12.904;2022-11-04T07:19:57;96512.50;;;10.31;91.34
72038;BME280;59900;50.788;12.904;2022-11-04T07:22:23;96509.88;;;10.31;91.46
72038;BME280;59900;50.788;12.904;2022-11-04T07:24:48;96508.06;;;10.31;91.18
72038;BME280;59900;50.788;12.904;2022-11-04T07:27:13;96512.72;;;10.29;91.42
72038;BME280;59900;50.788;12.904;2022-11-04T07:29:39;96520.03;;;10.27;91.39
72038;BME280;59900;50.788;12.904;2022-11-04T07:32:04;96534.97;;;10.27;91.54
72038;BME280;59900;50.788;12.904;2022-11-04T07:34:29;96530.97;;;10.24;91.50
72038;BME280;59900;50.788;12.904;2022-11-04T07:36:55;96530.97;;;10.24;91.61
72038;BME280;59900;50.788;12.904;2022-11-04T07:39:20;96530.16;;;10.24;91.30
72038;BME280;59900;50.788;12.904;2022-11-04T07:41:45;96528.53;;;10.23;91.53
72038;BME280;59900;50.788;12.904;2022-11-04T07:44:11;96524.91;;;10.24;91.24
72038;BME280;59900;50.788;12.904;2022-11-04T07:46:36;96532.19;;;10.22;91.32
72038;BME280;59900;50.788;12.904;2022-11-04T07:49:02;96531.41;;;10.21;91.71
72038;BME280;59900;50.788;12.904;2022-11-04T07:51:28;96531.84;;;10.18;91.80
72038;BME280;59900;50.788;12.904;2022-11-04T07:53:54;96523.72;;;10.20;91.62
72038;BME280;59900;50.788;12.904;2022-11-04T07:56:19;96522.72;;;10.21;92.25
72038;BME280;59900;50.788;12.904;2022-11-04T07:58:45;96514.84;;;10.21;92.22
72038;BME280;59900;50.788;12.904;2022-11-04T08:01:13;96501.72;;;10.21;92.49
72038;BME280;59900;50.788;12.904;2022-11-04T08:03:40;96508.56;;;10.22;92.01
72038;BME280;59900;50.788;12.904;2022-11-04T08:06:07;96513.59;;;10.23;91.88
72038;BME280;59900;50.788;12.904;2022-11-04T08:08:33;96521.47;;;10.23;91.66
72038;BME280;59900;50.788;12.904;2022-11-04T08:11:02;96517.22;;;10.22;91.57
72038;BME280;59900;50.788;12.904;2022-11-04T08:13:32;96515.41;;;10.23;92.03
72038;BME280;59900;50.788;12.904;2022-11-04T08:16:03;96517.03;;;10.24;91.86
72038;BME280;59900;50.788;12.904;2022-11-04T08:18:31;96506.97;;;10.21;91.96
72038;BME280;59900;50.788;12.904;2022-11-04T08:20:56;96506.34;;;10.19;92.32
72038;BME280;59900;50.788;12.904;2022-11-04T08:23:23;96514.84;;;10.21;92.90
72038;BME280;59900;50.788;12.904;2022-11-04T08:25:48;96513.81;;;10.22;92.54
72038;BME280;59900;50.788;12.904;2022-11-04T08:28:13;96504.91;;;10.23;92.27
72038;BME280;59900;50.788;12.904;2022-11-04T08:31:07;96507.53;;;10.23;92.23
72038;BME280;59900;50.788;12.904;2022-11-04T08:33:33;96506.53;;;10.24;92.70
72038;BME280;59900;50.788;12.904;2022-11-04T08:36:05;96506.53;;;10.24;93.10
72038;BME280;59900;50.788;12.904;2022-11-04T08:38:33;96503.53;;;10.20;92.80
72038;BME280;59900;50.788;12.904;2022-11-04T08:40:59;96517.31;;;10.16;92.34
72038;BME280;59900;50.788;12.904;2022-11-04T08:43:25;96501.16;;;10.12;92.13
72038;BME280;59900;50.788;12.904;2022-11-04T08:45:51;96499.03;;;10.02;91.12
72038;BME280;59900;50.788;12.904;2022-11-04T08:48:17;96498.66;;;9.99;91.18
72038;BME280;59900;50.788;12.904;2022-11-04T08:50:42;96505.72;;;9.98;91.32
72038;BME280;59900;50.788;12.904;2022-11-04T08:53:08;96506.53;;;9.99;90.81
72038;BME280;59900;50.788;12.904;2022-11-04T08:55:34;96513.84;;;9.97;90.67
72038;BME280;59900;50.788;12.904;2022-11-04T08:58:00;96513.59;;;9.98;90.92
72038;BME280;59900;50.788;12.904;2022-11-04T09:00:26;96518.09;;;9.98;90.99
72038;BME280;59900;50.788;12.904;2022-11-04T09:02:51;96526.16;;;9.96;89.88
72038;BME280;59900;50.788;12.904;2022-11-04T09:05:17;96523.53;;;9.96;89.49
72038;BME280;59900;50.788;12.904;2022-11-04T09:07:43;96525.78;;;9.93;90.13
72038;BME280;59900;50.788;12.904;2022-11-04T09:10:09;96523.00;;;9.88;89.71
72038;BME280;59900;50.788;12.904;2022-11-04T09:12:34;96525.06;;;9.86;89.70
72038;BME280;59900;50.788;12.904;2022-11-04T09:15:00;96516.81;;;9.82;89.13
72038;BME280;59900;50.788;12.904;2022-11-04T09:17:26;96511.59;;;9.76;89.04
72038;BME280;59900;50.788;12.904;2022-11-04T09:19:51;96511.59;;;9.76;90.33
72038;BME280;59900;50.788;12.904;2022-11-04T09:22:16;96508.19;;;9.75;90.11
72038;BME280;59900;50.788;12.904;2022-11-04T09:24:42;96503.97;;;9.74;89.63
72038;BME280;59900;50.788;12.904;2022-11-04T09:27:07;96506.78;;;9.73;89.50
72038;BME280;59900;50.788;12.904;2022-11-04T09:29:33;96510.22;;;9.73;90.26
72038;BME280;59900;50.788;12.904;2022-11-04T09:32:00;96520.13;;;9.71;89.84
72038;BME280;59900;50.788;12.904;2022-11-04T09:34:25;96521.13;;;9.70;90.26
72038;BME280;59900;50.788;12.904;2022-11-04T09:36:54;96537.09;;;9.69;89.98
72038;BME280;59900;50.788;12.904;2022-11-04T09:39:19;96544.16;;;9.68;90.40
72038;BME280;59900;50.788;12.904;2022-11-04T09:42:09;96535.25;;;9.69;90.45
72038;BME280;59900;50.788;12.904;2022-11-04T09:44:53;96543.94;;;9.70;90.77
72038;BME280;59900;50.788;12.904;2022-11-04T09:47:21;96547.22;;;9.65;90.38
72038;BME280;59900;50.788;12.904;2022-11-04T09:49:50;96562.97;;;9.65;90.71
72038;BME280;59900;50.788;12.904;2022-11-04T09:52:20;96572.06;;;9.63;90.98
72038;BME280;59900;50.788;12.904;2022-11-04T09:55:09;96572.22;;;9.68;91.12
72038;BME280;59900;50.788;12.904;2022-11-04T09:57:36;96574.25;;;9.66;90.66
72038;BME280;59900;50.788;12.904;2022-11-04T10:00:03;96585.75;;;9.65;91.30
72038;BME280;59900;50.788;12.904;2022-11-04T10:05:18;96596.44;;;9.63;91.60
72038;BME280;59900;50.788;12.904;2022-11-04T10:18:52;96605.56;;;9.61;92.76
72038;BME280;59900;50.788;12.904;2022-11-04T10:24:24;96597.94;;;9.52;93.09
72038;BME280;59900;50.788;12.904;2022-11-04T10:26:59;96606.03;;;9.51;93.48
72038;BME280;59900;50.788;12.904;2022-11-04T10:29:32;96611.47;;;9.49;93.31
72038;BME280;59900;50.788;12.904;2022-11-04T10:32:02;96613.91;;;9.51;93.30
72038;BME280;59900;50.788;12.904;2022-11-04T10:34:36;96613.72;;;9.46;92.90
72038;BME280;59900;50.788;12.904;2022-11-04T10:37:08;96625.84;;;9.40;93.02
72038;BME280;59900;50.788;12.904;2022-11-04T10:39:41;96626.50;;;9.36;93.24
72038;BME280;59900;50.788;12.904;2022-11-04T10:42:10;96623.69;;;9.31;92.48
72038;BME280;59900;50.788;12.904;2022-11-04T10:44:36;96625.94;;;9.27;92.49
72038;BME280;59900;50.788;12.904;2022-11-04T10:52:08;96620.13;;;9.19;92.40
72038;BME280;59900;50.788;12.904;2022-11-04T10:54:40;96614.69;;;9.14;92.64
72038;BME280;59900;50.788;12.904;2022-11-04T10:57:06;96610.50;;;9.13;92.97
72038;BME280;59900;50.788;12.904;2022-11-04T10:59:45;96600.78;;;9.13;93.17
72038;BME280;59900;50.788;12.904;2022-11-04T11:02:12;96611.28;;;9.13;92.75
72038;BME280;59900;50.788;12.904;2022-11-04T11:04:38;96607.22;;;9.17;92.59
72038;BME280;59900;50.788;12.904;2022-11-04T11:07:09;96613.06;;;9.19;92.30
72038;BME280;59900;50.788;12.904;2022-11-04T11:09:49;96615.69;;;9.19;92.87
72038;BME280;59900;50.788;12.904;2022-11-04T11:12:24;96609.66;;;9.19;92.19
72038;BME280;59900;50.788;12.904;2022-11-04T11:15:27;96612.06;;;9.20;92.46
72038;BME280;59900;50.788;12.904;2022-11-04T11:18:13;96608.63;;;9.20;92.55
72038;BME280;59900;50.788;12.904;2022-11-04T11:20:40;96608.00;;;9.24;93.19
72038;BME280;59900;50.788;12.904;2022-11-04T11:23:35;96611.38;;;9.31;93.11
72038;BME280;59900;50.788;12.904;2022-11-04T11:26:02;96602.91;;;9.36;93.01
72038;BME280;59900;50.788;12.904;2022-11-04T11:28:29;96596.44;;;9.38;93.10
72038;BME280;59900;50.788;12.904;2022-11-04T11:31:00;96594.97;;;9.42;92.69
72038;BME280;59900;50.788;12.904;2022-11-04T11:33:35;96599.44;;;9.42;92.32
72038;BME280;59900;50.788;12.904;2022-11-04T11:38:36;96600.22;;;9.42;92.07
72038;BME280;59900;50.788;12.904;2022-11-04T11:41:13;96608.50;;;9.39;92.19
72038;BME280;59900;50.788;12.904;2022-11-04T11:43:44;96619.19;;;9.44;91.05
72038;BME280;59900;50.788;12.904;2022-11-04T11:46:20;96614.91;;;9.50;91.52
72038;BME280;59900;50.788;12.904;2022-11-04T11:48:51;96613.28;;;9.49;90.24
72038;BME280;59900;50.788;12.904;2022-11-04T11:51:37;96607.72;;;9.39;87.45
72038;BME280;59900;50.788;12.904;2022-11-04T11:54:15;96595.63;;;9.38;88.26
72038;BME280;59900;50.788;12.904;2022-11-04T11:56:47;96604.91;;;9.34;88.76
72038;BME280;59900;50.788;12.904;2022-11-04T11:59:41;96597.28;;;9.26;89.02
72038;BME280;59900;50.788;12.904;2022-11-04T12:02:22;96598.78;;;9.15;88.04
72038;BME280;59900;50.788;12.904;2022-11-04T12:04:50;96597.19;;;9.08;88.99
72038;BME280;59900;50.788;12.904;2022-11-04T12:07:40;96598.63;;;9.04;89.18
72038;BME280;59900;50.788;12.904;2022-11-04T12:15:37;96593.19;;;8.98;89.74
72038;BME280;59900;50.788;12.904;2022-11-04T12:18:26;96600.47;;;8.96;89.29
72038;BME280;59900;50.788;12.904;2022-11-04T12:29:02;96589.72;;;9.11;89.81
72038;BME280;59900;50.788;12.904;2022-11-04T12:31:52;96591.09;;;9.20;89.34
72038;BME280;59900;50.788;12.904;2022-11-04T12:40:24;96575.31;;;9.27;89.35
72038;BME280;59900;50.788;12.904;2022-11-04T12:43:03;96570.28;;;9.25;88.87
72038;BME280;59900;50.788;12.904;2022-11-04T12:56:34;96577.44;;;9.43;88.41
72038;BME280;59900;50.788;12.904;2022-11-04T12:59:24;96584.44;;;9.49;88.39
72038;BME280;59900;50.788;12.904;2022-11-04T13:01:56;96586.88;;;9.50;88.08
72038;BME280;59900;50.788;12.904;2022-11-04T13:04:31;96577.53;;;9.54;88.96
72038;BME280;59900;50.788;12.904;2022-11-04T13:07:04;96566.69;;;9.51;87.48
72038;BME280;59900;50.788;12.904;2022-11-04T13:09:38;96566.69;;;9.51;87.75
72038;BME280;59900;50.788;12.904;2022-11-04T13:12:15;96565.91;;;9.50;86.66
72038;BME280;59900;50.788;12.904;2022-11-04T13:14:47;96571.19;;;9.44;86.91
72038;BME280;59900;50.788;12.904;2022-11-04T13:17:22;96569.97;;;9.40;86.55
72038;BME280;59900;50.788;12.904;2022-11-04T13:19:51;96571.38;;;9.42;86.59
72038;BME280;59900;50.788;12.904;2022-11-04T13:22:21;96567.97;;;9.42;87.07
72038;BME280;59900;50.788;12.904;2022-11-04T13:24:51;96581.09;;;9.42;86.75
72038;BME280;59900;50.788;12.904;2022-11-04T13:27:20;96593.34;;;9.48;87.40
72038;BME280;59900;50.788;12.904;2022-11-04T13:29:48;96597.38;;;9.50;86.56
72038;BME280;59900;50.788;12.904;2022-11-04T13:32:30;96603.34;;;9.57;87.44
72038;BME280;59900;50.788;12.904;2022-11-04T13:35:15;96593.25;;;9.61;87.64
72038;BME280;59900;50.788;12.904;2022-11-04T13:37:55;96591.03;;;9.58;86.43
72038;BME280;59900;50.788;12.904;2022-11-04T13:40:25;96606.63;;;9.53;87.19
72038;BME280;59900;50.788;12.904;2022-11-04T13:43:14;96612.47;;;9.48;86.75
72038;BME280;59900;50.788;12.904;2022-11-04T13:46:00;96610.69;;;9.42;86.40
72038;BME280;59900;50.788;12.904;2022-11-04T13:48:29;96613.38;;;9.36;86.67
72038;BME280;59900;50.788;12.904;2022-11-04T13:53:47;96621.91;;;9.25;87.58
72038;BME280;59900;50.788;12.904;2022-11-04T13:56:38;96614.09;;;9.18;86.42
72038;BME280;59900;50.788;12.904;2022-11-04T13:59:18;96615.31;;;9.16;87.13
72038;BME280;59900;50.788;12.904;2022-11-04T14:01:43;96609.28;;;9.09;86.98
72038;BME280;59900;50.788;12.904;2022-11-04T14:06:59;96622.00;;;9.05;87.11
72038;BME280;59900;50.788;12.904;2022-11-04T14:14:38;96624.63;;;8.98;86.43
72038;BME280;59900;50.788;12.904;2022-11-04T14:25:36;96633.53;;;8.97;87.60
72038;BME280;59900;50.788;12.904;2022-11-04T14:28:17;96627.09;;;8.93;86.94
72038;BME280;59900;50.788;12.904;2022-11-04T14:31:02;96640.19;;;8.87;87.20
72038;BME280;59900;50.788;12.904;2022-11-04T14:44:12;96659.38;;;8.81;87.49
72038;BME280;59900;50.788;12.904;2022-11-04T14:46:43;96667.84;;;8.83;87.52
72038;BME280;59900;50.788;12.904;2022-11-04T14:49:29;96667.84;;;8.83;87.54
72038;BME280;59900;50.788;12.904;2022-11-04T14:51:57;96666.03;;;8.83;87.67
72038;BME280;59900;50.788;12.904;2022-11-04T14:54:25;96671.88;;;8.85;87.51